createdAt,value
2018-02-25T00:00:58.915Z,26.2
2018-02-25T00:10:59.663Z,27.8
2018-02-25T00:20:59.460Z,24.6
2018-02-25T00:30:59.218Z,23.6
2018-02-25T00:40:58.936Z,24.8
2018-02-25T00:50:59.673Z,24.5
2018-02-25T01:00:59.402Z,22.9
2018-02-25T01:10:59.167Z,24.7
2018-02-25T01:20:59.031Z,25.8
2018-02-25T01:30:59.749Z,21.1
2018-02-25T01:40:59.535Z,25.7
2018-02-25T01:50:59.273Z,25.1
2018-02-25T02:00:58.994Z,24.7
2018-02-25T02:10:59.735Z,24.9
2018-02-25T02:20:59.570Z,29.4
2018-02-25T02:30:59.298Z,26.6
2018-02-25T02:40:59.035Z,25.3
2018-02-25T02:50:59.782Z,23.7
2018-02-25T03:00:59.474Z,21.3
2018-02-25T03:10:59.192Z,22.6
2018-02-25T03:20:58.991Z,20.9
2018-02-25T03:30:59.675Z,25.4
2018-02-25T03:40:59.390Z,24.9
2018-02-25T03:50:59.061Z,24.0
2018-02-25T04:00:59.842Z,24.4
2018-02-25T04:10:59.616Z,22.9
2018-02-25T04:20:59.307Z,27.4
2018-02-25T04:30:58.944Z,22.5
2018-02-25T04:40:59.624Z,25.3
2018-02-25T04:50:59.320Z,23.2
2018-02-25T05:00:59.023Z,23.3
2018-02-25T05:10:59.733Z,24.7
2018-02-25T05:20:59.540Z,26.8
2018-02-25T05:30:59.026Z,26.6
2018-02-25T05:40:59.739Z,25.3
2018-02-25T05:50:59.100Z,29.3
2018-02-25T06:00:58.805Z,21.8
2018-02-25T06:10:59.514Z,26.1
2018-02-25T06:20:59.333Z,24.3
2018-02-25T06:30:59.032Z,26.1
2018-02-25T06:40:59.719Z,29.7
2018-02-25T06:50:59.417Z,34.1
2018-02-25T07:00:59.168Z,17.6
2018-02-25T07:10:58.946Z,22.7
2018-02-25T07:20:58.762Z,27.5
2018-02-25T07:30:59.450Z,23.7
2018-02-25T07:40:59.190Z,26.7
2018-02-25T07:50:58.908Z,28.8
2018-02-25T08:00:59.621Z,27.3
2018-02-25T08:10:59.384Z,26.7
2018-02-25T08:20:59.197Z,26.7
2018-02-25T08:30:58.841Z,25.7
2018-02-25T08:40:59.552Z,26.2
2018-02-25T08:50:59.296Z,27.6
2018-02-25T09:00:59.039Z,37.1
2018-02-25T09:10:58.724Z,40.4
2018-02-25T09:20:59.615Z,20.5
2018-02-25T09:30:59.368Z,21.0
2018-02-25T09:40:59.144Z,21.3
2018-02-25T09:50:58.880Z,17.5
2018-02-25T10:00:59.600Z,23.7
2018-02-25T10:10:59.314Z,17.5
2018-02-25T10:20:59.152Z,15.9
2018-02-25T10:30:58.818Z,14.7
2018-02-25T10:40:59.550Z,12.6
2018-02-25T10:50:59.431Z,16.8
2018-02-25T11:00:59.124Z,16.6
2018-02-25T11:10:58.799Z,15.2
2018-02-25T11:20:59.678Z,17.4
2018-02-25T11:30:59.372Z,18.6
2018-02-25T11:40:59.048Z,19.3
2018-02-25T11:50:58.756Z,19.4
2018-02-25T12:00:59.423Z,17.6
2018-02-25T12:10:59.154Z,20.7
2018-02-25T12:20:58.991Z,23.5
2018-02-25T12:30:59.708Z,18.9
2018-02-25T12:40:59.473Z,20.9
2018-02-25T12:50:59.140Z,17.5
2018-02-25T13:00:58.878Z,27.1
2018-02-25T13:10:59.496Z,23.7
2018-02-25T13:20:59.534Z,25.6
2018-02-25T13:30:59.434Z,19.7
2018-02-25T13:40:59.200Z,20.0
2018-02-25T13:50:58.906Z,18.6
2018-02-25T14:00:59.568Z,18.0
2018-02-25T14:10:59.240Z,25.2
2018-02-25T14:20:59.190Z,19.4
2018-02-25T14:30:58.943Z,23.2
2018-02-25T14:40:59.701Z,20.4
2018-02-25T14:50:59.425Z,20.7
2018-02-25T15:00:59.183Z,26.7
2018-02-25T15:10:58.928Z,28.9
2018-02-25T15:20:58.815Z,30.1
2018-02-25T15:30:59.553Z,21.3
2018-02-25T15:40:59.347Z,25.3
2018-02-25T15:50:59.111Z,26.5
2018-02-25T16:00:59.187Z,22.9
2018-02-25T16:10:58.963Z,26.7
2018-02-25T16:20:58.865Z,25.4
2018-02-25T16:30:59.656Z,25.8
2018-02-25T16:40:59.401Z,25.7
2018-02-25T16:50:59.182Z,27.9
2018-02-25T17:00:58.917Z,27.2
2018-02-25T17:10:59.676Z,23.4
2018-02-25T17:20:59.567Z,29.1
2018-02-25T17:30:59.366Z,31.8
2018-02-25T17:40:59.185Z,44.1
2018-02-25T17:50:58.951Z,49.4
2018-02-25T18:00:59.792Z,37.1
2018-02-25T18:10:59.566Z,38.1
2018-02-25T18:20:59.417Z,55.1
2018-02-25T18:30:59.182Z,52.8
2018-02-25T18:40:59.009Z,65.9
2018-02-25T18:50:58.819Z,59.1
2018-02-25T19:00:59.561Z,72.1
2018-02-25T19:10:59.343Z,63.6
2018-02-25T19:20:59.265Z,74.1
2018-02-25T19:30:59.140Z,77.9
2018-02-25T19:40:59.010Z,69.8
2018-02-25T19:50:58.766Z,86.3
2018-02-25T20:00:59.520Z,92.8
2018-02-25T20:10:59.362Z,90.3
2018-02-25T20:20:59.347Z,93.3
2018-02-25T20:30:59.092Z,101.8
2018-02-25T20:40:58.979Z,124.7
2018-02-25T20:50:58.846Z,114.1
2018-02-25T21:00:59.632Z,111.7
2018-02-25T21:10:59.445Z,73.1
2018-02-25T21:20:59.363Z,52.6
2018-02-25T21:30:59.105Z,60.5
2018-02-25T21:40:58.852Z,66.7
2018-02-25T21:50:59.589Z,72.7
2018-02-25T22:00:59.357Z,52.3
2018-02-25T22:10:59.214Z,44.0
2018-02-25T22:20:59.092Z,49.8
2018-02-25T22:30:58.807Z,51.7
2018-02-25T22:40:59.577Z,51.2
2018-02-25T22:50:59.289Z,65.6
2018-02-25T23:00:59.038Z,75.3
2018-02-25T23:10:58.745Z,59.8
2018-02-25T23:20:59.529Z,59.3
2018-02-25T23:30:59.228Z,54.8
2018-02-25T23:40:59.018Z,55.2
2018-02-25T23:50:58.713Z,66.1
